createdAt,value
2019-02-17T00:00:00.323Z,80.46
2019-02-17T00:02:08.370Z,80.51
2019-02-17T00:04:14.667Z,80.63
2019-02-17T00:06:20.916Z,80.52
2019-02-17T00:08:27.147Z,80.58
2019-02-17T00:10:33.310Z,80.66
2019-02-17T00:12:39.569Z,80.80
2019-02-17T00:14:45.737Z,80.86
2019-02-17T00:16:51.969Z,80.82
2019-02-17T00:18:58.311Z,80.79
2019-02-17T00:21:04.762Z,80.82
2019-02-17T00:23:10.908Z,80.92
2019-02-17T00:25:17.314Z,80.89
2019-02-17T00:27:23.692Z,80.85
2019-02-17T00:29:30.051Z,80.89
2019-02-17T00:31:36.368Z,81.08
2019-02-17T00:33:42.687Z,81.07
2019-02-17T00:35:48.988Z,81.09
2019-02-17T00:37:55.379Z,81.01
2019-02-17T00:40:01.716Z,81.03
2019-02-17T00:42:08.466Z,80.97
2019-02-17T00:44:14.747Z,80.93
2019-02-17T00:46:21.549Z,80.87
2019-02-17T00:48:27.919Z,80.83
2019-02-17T00:50:34.179Z,80.80
2019-02-17T00:52:40.487Z,80.95
2019-02-17T00:54:46.725Z,80.83
2019-02-17T00:56:53.192Z,80.67
2019-02-17T00:59:09.337Z,80.60
2019-02-17T01:01:08.439Z,80.55
2019-02-17T01:03:14.756Z,80.55
2019-02-17T01:05:21.406Z,80.53
2019-02-17T01:07:27.756Z,80.50
2019-02-17T01:09:34.130Z,80.50
2019-02-17T01:11:40.441Z,80.42
2019-02-17T01:13:46.846Z,80.31
2019-02-17T01:15:53.187Z,80.19
2019-02-17T01:17:59.558Z,80.16
2019-02-17T01:20:08.921Z,79.85
2019-02-17T01:22:15.317Z,79.69
2019-02-17T01:24:21.467Z,79.51
2019-02-17T01:26:27.782Z,79.34
2019-02-17T01:28:34.108Z,79.09
2019-02-17T01:30:40.547Z,78.76
2019-02-17T01:32:46.708Z,78.50
2019-02-17T01:34:52.893Z,78.36
2019-02-17T01:36:59.130Z,78.31
2019-02-17T01:39:07.793Z,78.04
2019-02-17T01:41:14.128Z,77.91
2019-02-17T01:43:20.405Z,77.81
2019-02-17T01:45:26.739Z,77.81
2019-02-17T01:47:33.006Z,77.90
2019-02-17T01:49:39.318Z,77.86
2019-02-17T01:51:45.554Z,77.67
2019-02-17T01:53:51.797Z,77.71
2019-02-17T01:55:58.034Z,77.76
2019-02-17T01:58:04.261Z,77.72
2019-02-17T02:00:16.023Z,77.42
2019-02-17T02:02:22.321Z,77.40
2019-02-17T02:04:28.682Z,77.26
2019-02-17T02:06:35.028Z,77.33
2019-02-17T02:08:41.248Z,77.46
2019-02-17T02:10:47.555Z,77.17
2019-02-17T02:12:53.820Z,77.16
2019-02-17T02:15:00.049Z,77.25
2019-02-17T02:17:06.412Z,77.27
2019-02-17T02:19:12.662Z,77.16
2019-02-17T02:21:18.814Z,77.22
2019-02-17T02:23:25.040Z,77.22
2019-02-17T02:25:32.270Z,77.17
2019-02-17T02:27:38.432Z,77.22
2019-02-17T02:29:44.586Z,77.34
2019-02-17T02:31:50.919Z,77.34
2019-02-17T02:33:57.094Z,77.54
2019-02-17T02:36:03.478Z,77.68
2019-02-17T02:38:09.669Z,77.85
2019-02-17T02:40:15.893Z,77.80
2019-02-17T02:42:22.123Z,77.71
2019-02-17T02:44:28.449Z,77.62
2019-02-17T02:46:34.675Z,77.65
2019-02-17T02:48:40.844Z,77.63
2019-02-17T02:50:47.095Z,77.57
2019-02-17T02:52:53.323Z,77.66
2019-02-17T02:54:59.546Z,77.74
2019-02-17T02:57:05.881Z,77.79
2019-02-17T02:59:12.066Z,77.87
2019-02-17T03:01:18.300Z,77.94
2019-02-17T03:03:24.572Z,78.05
2019-02-17T03:05:30.911Z,78.18
2019-02-17T03:07:37.147Z,78.28
2019-02-17T03:09:44.338Z,78.44
2019-02-17T03:11:50.664Z,78.58
2019-02-17T03:13:56.837Z,78.39
2019-02-17T03:16:03.103Z,78.34
2019-02-17T03:18:09.388Z,78.23
2019-02-17T03:20:15.655Z,78.09
2019-02-17T03:22:21.973Z,78.16
2019-02-17T03:24:28.134Z,78.20
2019-02-17T03:26:34.375Z,78.37
2019-02-17T03:28:40.619Z,78.37
2019-02-17T03:30:46.848Z,78.49
2019-02-17T03:32:53.219Z,78.61
2019-02-17T03:34:59.399Z,78.42
2019-02-17T03:37:05.743Z,78.41
2019-02-17T03:39:11.887Z,78.48
2019-02-17T03:41:18.249Z,78.59
2019-02-17T03:43:24.406Z,78.57
2019-02-17T03:45:30.709Z,78.53
2019-02-17T03:47:36.912Z,78.53
2019-02-17T03:49:43.070Z,78.61
2019-02-17T03:51:49.309Z,78.76
2019-02-17T03:53:55.703Z,78.62
2019-02-17T03:56:01.939Z,78.69
2019-02-17T03:58:08.128Z,78.75
2019-02-17T04:00:17.226Z,78.83
2019-02-17T04:02:22.387Z,78.83
2019-02-17T04:04:28.697Z,78.74
2019-02-17T04:06:34.946Z,78.76
2019-02-17T04:08:41.105Z,78.90
2019-02-17T04:10:47.262Z,78.83
2019-02-17T04:12:53.531Z,78.79
2019-02-17T04:14:59.686Z,78.84
2019-02-17T04:17:05.923Z,78.86
2019-02-17T04:19:12.111Z,78.77
2019-02-17T04:21:18.353Z,78.72
2019-02-17T04:23:31.272Z,78.76
2019-02-17T04:25:33.398Z,78.72
2019-02-17T04:27:39.626Z,78.57
2019-02-17T04:29:45.796Z,78.54
2019-02-17T04:31:53.058Z,78.55
2019-02-17T04:33:59.283Z,78.60
2019-02-17T04:36:05.461Z,78.66
2019-02-17T04:38:11.902Z,78.84
2019-02-17T04:40:18.327Z,78.84
2019-02-17T04:42:24.629Z,78.76
2019-02-17T04:44:30.880Z,78.84
2019-02-17T04:46:37.034Z,78.84
2019-02-17T04:48:43.327Z,78.85
2019-02-17T04:50:49.580Z,78.88
2019-02-17T04:52:55.862Z,79.02
2019-02-17T04:55:03.131Z,79.02
2019-02-17T04:57:09.413Z,79.03
2019-02-17T04:59:15.644Z,78.98
2019-02-17T05:01:21.994Z,78.92
2019-02-17T05:03:28.327Z,78.87
2019-02-17T05:05:34.556Z,78.96
2019-02-17T05:07:40.718Z,79.10
2019-02-17T05:09:47.223Z,79.10
2019-02-17T05:11:53.385Z,79.11
2019-02-17T05:13:59.545Z,79.29
2019-02-17T05:16:06.016Z,79.32
2019-02-17T05:18:12.168Z,79.14
2019-02-17T05:20:18.321Z,79.10
2019-02-17T05:22:24.672Z,79.09
2019-02-17T05:24:30.833Z,79.15
2019-02-17T05:26:36.996Z,79.19
2019-02-17T05:28:43.249Z,79.22
2019-02-17T05:30:52.906Z,79.23
2019-02-17T05:32:57.275Z,79.24
2019-02-17T05:35:03.620Z,79.11
2019-02-17T05:37:09.808Z,79.12
2019-02-17T05:39:15.966Z,79.04
2019-02-17T05:41:22.145Z,79.02
2019-02-17T05:43:28.445Z,79.19
2019-02-17T05:45:34.680Z,79.08
2019-02-17T05:47:40.876Z,79.08
2019-02-17T05:49:47.092Z,79.04
2019-02-17T05:51:53.187Z,78.91
2019-02-17T05:53:59.449Z,78.75
2019-02-17T05:56:05.678Z,78.63
2019-02-17T05:58:11.972Z,78.57
2019-02-17T06:00:20.475Z,78.44
2019-02-17T06:02:26.638Z,78.39
2019-02-17T06:04:32.794Z,78.28
2019-02-17T06:06:39.053Z,78.12
2019-02-17T06:08:45.281Z,78.03
2019-02-17T06:10:51.432Z,77.89
2019-02-17T06:12:57.781Z,77.54
2019-02-17T06:15:04.115Z,77.44
2019-02-17T06:17:10.361Z,77.05
2019-02-17T06:19:17.837Z,76.82
2019-02-17T06:21:24.254Z,76.38
2019-02-17T06:23:30.417Z,75.62
2019-02-17T06:25:36.597Z,75.41
2019-02-17T06:27:42.832Z,75.03
2019-02-17T06:29:49.216Z,74.81
2019-02-17T06:31:55.537Z,74.63
2019-02-17T06:34:01.715Z,73.50
2019-02-17T06:36:08.110Z,72.92
2019-02-17T06:38:14.368Z,71.79
2019-02-17T06:40:20.541Z,69.67
2019-02-17T06:42:26.762Z,66.30
2019-02-17T06:44:32.957Z,61.92
2019-02-17T06:46:40.842Z,59.00
2019-02-17T06:48:47.003Z,56.61
2019-02-17T06:50:53.268Z,53.30
2019-02-17T06:52:59.505Z,51.89
2019-02-17T06:55:16.854Z,48.11
2019-02-17T06:57:24.632Z,45.25
2019-02-17T06:59:30.862Z,44.14
2019-02-17T07:01:36.949Z,43.63
2019-02-17T07:03:44.361Z,40.52
2019-02-17T07:05:52.174Z,37.48
2019-02-17T07:07:58.323Z,35.39
2019-02-17T07:10:05.653Z,35.17
2019-02-17T07:12:12.108Z,35.37
2019-02-17T07:14:18.270Z,35.20
2019-02-17T07:16:24.533Z,35.47
2019-02-17T07:18:30.685Z,34.36
2019-02-17T07:20:36.858Z,35.44
2019-02-17T07:22:43.044Z,36.58
2019-02-17T07:24:49.443Z,38.98
2019-02-17T07:26:55.683Z,41.27
2019-02-17T07:29:02.013Z,43.32
2019-02-17T07:31:08.215Z,43.28
2019-02-17T07:33:14.440Z,42.95
2019-02-17T07:35:20.788Z,42.99
2019-02-17T07:37:33.603Z,41.84
2019-02-17T07:39:34.892Z,39.70
2019-02-17T07:41:41.163Z,37.89
2019-02-17T07:43:47.356Z,35.91
2019-02-17T07:45:53.505Z,33.81
2019-02-17T07:47:59.774Z,33.11
2019-02-17T07:50:09.942Z,32.12
2019-02-17T07:52:16.116Z,31.89
2019-02-17T07:54:22.369Z,31.49
2019-02-17T07:56:28.591Z,31.89
2019-02-17T07:58:34.885Z,33.78
2019-02-17T08:00:41.222Z,35.21
2019-02-17T08:02:49.553Z,32.58
2019-02-17T08:04:55.267Z,30.00
2019-02-17T08:07:01.572Z,27.60
2019-02-17T08:09:07.808Z,25.93
2019-02-17T08:11:14.122Z,26.43
2019-02-17T08:13:20.377Z,31.75
2019-02-17T08:15:26.658Z,36.66
2019-02-17T08:17:32.901Z,40.09
2019-02-17T08:19:39.226Z,43.58
2019-02-17T08:21:45.463Z,46.37
2019-02-17T08:23:51.730Z,48.23
2019-02-17T08:25:58.015Z,49.61
2019-02-17T08:28:04.254Z,51.12
2019-02-17T08:30:14.468Z,51.29
2019-02-17T08:32:20.804Z,51.60
2019-02-17T08:34:27.143Z,51.23
2019-02-17T08:36:33.359Z,51.38
2019-02-17T08:38:39.698Z,52.01
2019-02-17T08:40:45.931Z,52.43
2019-02-17T08:42:52.177Z,53.15
2019-02-17T08:44:58.358Z,53.44
2019-02-17T08:47:04.599Z,53.86
2019-02-17T08:49:10.833Z,53.59
2019-02-17T08:51:17.030Z,54.36
2019-02-17T08:53:23.259Z,54.37
2019-02-17T08:55:29.429Z,54.57
2019-02-17T08:57:37.971Z,54.48
2019-02-17T08:59:45.843Z,54.10
2019-02-17T09:01:52.000Z,53.78
2019-02-17T09:03:58.268Z,54.05
2019-02-17T09:06:04.352Z,54.43
2019-02-17T09:08:10.577Z,55.15
2019-02-17T09:10:16.842Z,55.41
2019-02-17T09:12:23.211Z,54.67
2019-02-17T09:14:29.372Z,54.64
2019-02-17T09:16:35.739Z,54.95
2019-02-17T09:18:41.952Z,55.72
2019-02-17T09:20:48.195Z,55.81
2019-02-17T09:22:54.557Z,56.19
2019-02-17T09:25:00.801Z,56.76
2019-02-17T09:27:07.170Z,56.74
2019-02-17T09:29:13.424Z,56.70
2019-02-17T09:31:21.352Z,56.88
2019-02-17T09:33:27.574Z,57.45
2019-02-17T09:35:33.909Z,57.74
2019-02-17T09:37:40.207Z,58.17
2019-02-17T09:39:46.359Z,58.08
2019-02-17T09:41:52.802Z,58.58
2019-02-17T09:43:58.967Z,58.35
2019-02-17T09:46:05.415Z,58.53
2019-02-17T09:48:11.690Z,58.44
2019-02-17T09:50:17.951Z,58.70
2019-02-17T09:52:24.177Z,58.88
2019-02-17T09:54:30.615Z,58.67
2019-02-17T09:56:36.868Z,58.86
2019-02-17T09:58:43.108Z,58.87
2019-02-17T10:00:49.499Z,58.55
2019-02-17T10:02:55.883Z,58.30
2019-02-17T10:05:02.108Z,58.05
2019-02-17T10:07:08.470Z,58.06
2019-02-17T10:09:14.768Z,58.45
2019-02-17T10:11:21.148Z,58.61
2019-02-17T10:13:27.537Z,58.47
2019-02-17T10:15:33.696Z,58.92
2019-02-17T10:17:39.917Z,59.02
2019-02-17T10:19:46.228Z,59.54
2019-02-17T10:21:52.387Z,58.68
2019-02-17T10:23:59.422Z,58.19
2019-02-17T10:26:05.729Z,57.91
2019-02-17T10:28:13.135Z,57.84
2019-02-17T10:30:19.577Z,57.27
2019-02-17T10:32:36.278Z,56.45
2019-02-17T10:34:34.078Z,56.19
2019-02-17T10:36:40.469Z,56.30
2019-02-17T10:38:46.911Z,57.19
2019-02-17T10:40:53.238Z,57.64
2019-02-17T10:42:59.519Z,57.62
2019-02-17T10:45:06.415Z,58.01
2019-02-17T10:47:12.808Z,57.75
2019-02-17T10:49:19.453Z,58.58
2019-02-17T10:51:26.548Z,58.89
2019-02-17T10:53:32.880Z,59.03
2019-02-17T10:55:39.953Z,59.43
2019-02-17T10:57:46.295Z,59.74
2019-02-17T10:59:52.530Z,60.25
2019-02-17T11:01:58.916Z,60.56
2019-02-17T11:04:08.339Z,60.86
2019-02-17T11:06:14.920Z,60.91
2019-02-17T11:08:21.145Z,60.93
2019-02-17T11:10:28.442Z,61.11
2019-02-17T11:12:34.735Z,60.92
2019-02-17T11:14:40.955Z,60.96
2019-02-17T11:16:47.496Z,60.56
2019-02-17T11:18:53.734Z,60.51
2019-02-17T11:21:00.184Z,60.72
2019-02-17T11:23:06.511Z,60.80
2019-02-17T11:25:14.611Z,60.83
2019-02-17T11:27:20.961Z,61.11
2019-02-17T11:29:27.140Z,61.50
2019-02-17T11:31:33.525Z,61.98
2019-02-17T11:33:42.384Z,62.07
2019-02-17T11:35:48.708Z,61.73
2019-02-17T11:37:56.265Z,61.53
2019-02-17T11:40:02.559Z,61.66
2019-02-17T11:42:08.900Z,61.96
2019-02-17T11:44:15.255Z,61.47
2019-02-17T11:46:21.703Z,61.54
2019-02-17T11:48:28.152Z,61.71
2019-02-17T11:50:34.898Z,61.51
2019-02-17T11:52:41.142Z,61.42
2019-02-17T11:54:47.782Z,61.25
2019-02-17T11:56:54.222Z,61.23
2019-02-17T11:59:01.502Z,60.75
2019-02-17T12:01:07.810Z,60.38
2019-02-17T12:03:14.062Z,60.03
2019-02-17T12:05:21.505Z,60.08
2019-02-17T12:07:28.688Z,59.95
2019-02-17T12:09:35.172Z,60.02
2019-02-17T12:11:41.470Z,59.88
2019-02-17T12:13:48.014Z,60.06
2019-02-17T12:15:54.427Z,60.07
2019-02-17T12:18:02.397Z,59.25
2019-02-17T12:20:35.669Z,58.83
2019-02-17T12:22:41.974Z,58.41
2019-02-17T12:24:49.092Z,58.34
2019-02-17T12:26:57.068Z,58.38
2019-02-17T12:29:05.611Z,58.60
2019-02-17T12:31:14.294Z,58.70
2019-02-17T12:33:22.052Z,58.66
2019-02-17T12:35:29.670Z,58.47
2019-02-17T12:37:36.001Z,58.26
2019-02-17T12:39:42.275Z,57.89
2019-02-17T12:41:48.719Z,58.03
2019-02-17T12:43:54.945Z,58.14
2019-02-17T12:46:01.314Z,57.88
2019-02-17T12:48:09.009Z,57.74
2019-02-17T12:50:15.458Z,58.40
2019-02-17T12:52:21.853Z,58.64
2019-02-17T12:54:29.449Z,58.48
2019-02-17T12:56:36.987Z,58.82
2019-02-17T12:58:43.246Z,58.88
2019-02-17T13:00:51.239Z,58.79
2019-02-17T13:02:57.498Z,58.61
2019-02-17T13:05:04.168Z,58.68
2019-02-17T13:07:10.400Z,58.77
2019-02-17T13:09:17.639Z,58.79
2019-02-17T13:11:24.036Z,59.54
2019-02-17T13:13:30.273Z,60.08
2019-02-17T13:15:36.676Z,60.02
2019-02-17T13:17:42.878Z,59.93
2019-02-17T13:19:49.772Z,59.86
2019-02-17T13:21:56.077Z,59.97
2019-02-17T13:24:02.411Z,59.93
2019-02-17T13:26:08.819Z,60.21
2019-02-17T13:28:15.051Z,60.31
2019-02-17T13:30:24.901Z,60.35
2019-02-17T13:32:31.140Z,60.08
2019-02-17T13:34:37.518Z,60.47
2019-02-17T13:36:43.781Z,60.56
2019-02-17T13:38:50.074Z,60.52
2019-02-17T13:40:58.244Z,60.59
2019-02-17T13:43:04.643Z,61.18
2019-02-17T13:45:13.998Z,61.24
2019-02-17T13:47:20.296Z,61.25
2019-02-17T13:49:26.637Z,61.00
2019-02-17T13:51:34.505Z,61.01
2019-02-17T13:53:42.165Z,60.87
2019-02-17T13:55:49.846Z,61.08
2019-02-17T13:57:56.067Z,61.23
2019-02-17T14:00:05.603Z,61.79
2019-02-17T14:02:12.373Z,61.67
2019-02-17T14:04:19.051Z,61.54
2019-02-17T14:06:25.210Z,61.70
2019-02-17T14:08:33.872Z,61.61
2019-02-17T14:10:41.809Z,61.86
2019-02-17T14:12:48.118Z,61.80
2019-02-17T14:14:55.589Z,61.86
2019-02-17T14:17:01.836Z,62.24
2019-02-17T14:19:08.209Z,62.39
2019-02-17T14:21:16.175Z,62.53
2019-02-17T14:23:22.609Z,62.59
2019-02-17T14:25:31.539Z,62.61
2019-02-17T14:27:37.856Z,62.55
2019-02-17T14:29:45.854Z,62.88
2019-02-17T14:31:52.224Z,63.17
2019-02-17T14:33:58.936Z,63.29
2019-02-17T14:36:06.776Z,63.43
2019-02-17T14:38:13.131Z,63.60
2019-02-17T14:40:21.645Z,63.81
2019-02-17T14:42:28.085Z,64.10
2019-02-17T14:44:34.385Z,63.97
2019-02-17T14:46:42.691Z,63.59
2019-02-17T14:48:48.979Z,63.65
2019-02-17T14:50:55.276Z,63.90
2019-02-17T14:53:03.234Z,63.80
2019-02-17T14:55:14.073Z,63.76
2019-02-17T14:57:23.807Z,63.67
2019-02-17T14:59:30.125Z,63.44
2019-02-17T15:01:39.302Z,63.15
2019-02-17T15:03:47.298Z,62.88
2019-02-17T15:05:53.804Z,62.57
2019-02-17T15:08:00.193Z,62.64
2019-02-17T15:10:12.396Z,62.77
2019-02-17T15:12:18.793Z,62.79
2019-02-17T15:14:25.279Z,62.69
2019-02-17T15:16:33.207Z,62.83
2019-02-17T15:18:39.522Z,62.39
2019-02-17T15:20:45.927Z,62.18
2019-02-17T15:22:52.224Z,62.31
2019-02-17T15:24:59.814Z,62.21
2019-02-17T15:27:06.264Z,62.04
2019-02-17T15:29:14.190Z,61.99
2019-02-17T15:31:21.977Z,62.00
2019-02-17T15:33:33.487Z,61.93
2019-02-17T15:35:39.847Z,62.07
2019-02-17T15:37:46.254Z,62.17
2019-02-17T15:39:54.486Z,62.20
2019-02-17T15:42:00.845Z,62.21
2019-02-17T15:44:07.261Z,61.99
2019-02-17T15:46:13.611Z,62.04
2019-02-17T15:48:19.987Z,61.76
2019-02-17T15:50:29.094Z,61.59
2019-02-17T15:52:36.240Z,61.77
2019-02-17T15:54:44.697Z,61.99
2019-02-17T15:56:51.087Z,61.79
2019-02-17T15:59:00.155Z,61.74
2019-02-17T16:01:05.591Z,61.58
2019-02-17T16:03:11.836Z,61.46
2019-02-17T16:05:18.299Z,61.38
2019-02-17T16:07:24.763Z,61.40
2019-02-17T16:09:32.949Z,61.60
2019-02-17T16:11:39.318Z,61.60
2019-02-17T16:13:49.421Z,61.39
2019-02-17T16:15:55.818Z,61.85
2019-02-17T16:18:02.107Z,61.47
2019-02-17T16:20:13.463Z,61.98
2019-02-17T16:22:20.012Z,61.98
2019-02-17T16:24:26.305Z,61.79
2019-02-17T16:26:32.619Z,62.13
2019-02-17T16:28:40.223Z,61.94
2019-02-17T16:30:47.978Z,62.65
2019-02-17T16:32:56.039Z,62.22
2019-02-17T16:35:02.439Z,62.05
2019-02-17T16:37:08.664Z,62.29
2019-02-17T16:39:15.070Z,62.10
2019-02-17T16:41:21.485Z,62.34
2019-02-17T16:43:27.912Z,62.16
2019-02-17T16:45:34.220Z,62.27
2019-02-17T16:47:42.570Z,62.06
2019-02-17T16:49:48.937Z,62.34
2019-02-17T16:51:57.565Z,62.22
2019-02-17T16:54:04.624Z,62.14
2019-02-17T16:56:11.569Z,62.25
2019-02-17T16:58:18.749Z,62.33
2019-02-17T17:00:28.769Z,62.47
2019-02-17T17:02:38.001Z,62.35
2019-02-17T17:04:48.402Z,62.56
2019-02-17T17:06:54.155Z,62.68
2019-02-17T17:09:00.383Z,62.74
2019-02-17T17:11:09.853Z,62.83
2019-02-17T17:13:17.654Z,62.90
2019-02-17T17:15:23.813Z,62.93
2019-02-17T17:17:31.814Z,62.97
2019-02-17T17:19:38.139Z,63.26
2019-02-17T17:21:44.359Z,63.35
2019-02-17T17:23:52.291Z,63.41
2019-02-17T17:25:58.611Z,63.53
2019-02-17T17:28:04.913Z,63.48
2019-02-17T17:30:16.980Z,63.51
2019-02-17T17:32:23.183Z,63.88
2019-02-17T17:34:29.557Z,63.53
2019-02-17T17:36:36.419Z,63.45
2019-02-17T17:38:43.026Z,63.50
2019-02-17T17:40:49.465Z,63.74
2019-02-17T17:42:55.690Z,63.80
2019-02-17T17:45:06.307Z,63.87
2019-02-17T17:47:14.146Z,63.88
2019-02-17T17:49:20.558Z,64.06
2019-02-17T17:51:27.669Z,63.99
2019-02-17T17:53:36.614Z,64.29
2019-02-17T17:55:42.913Z,64.25
2019-02-17T17:57:49.308Z,64.08
2019-02-17T17:59:57.255Z,64.20
2019-02-17T18:02:06.766Z,64.02
2019-02-17T18:04:13.855Z,64.63
2019-02-17T18:06:20.218Z,64.15
2019-02-17T18:08:28.686Z,64.52
2019-02-17T18:10:36.577Z,64.75
2019-02-17T18:12:42.889Z,64.92
2019-02-17T18:14:52.597Z,64.45
2019-02-17T18:16:59.077Z,64.53
2019-02-17T18:19:05.994Z,64.34
2019-02-17T18:21:12.445Z,64.61
2019-02-17T18:23:21.325Z,64.55
2019-02-17T18:25:27.684Z,65.59
2019-02-17T18:27:36.011Z,64.53
2019-02-17T18:29:43.196Z,64.71
2019-02-17T18:31:49.441Z,64.53
2019-02-17T18:33:55.730Z,64.70
2019-02-17T18:36:02.230Z,64.72
2019-02-17T18:38:08.538Z,65.06
2019-02-17T18:40:20.365Z,65.05
2019-02-17T18:42:28.546Z,64.64
2019-02-17T18:44:36.418Z,64.64
2019-02-17T18:46:44.162Z,64.73
2019-02-17T18:48:52.457Z,64.85
2019-02-17T18:51:02.515Z,64.97
2019-02-17T18:53:10.827Z,65.01
2019-02-17T18:55:18.808Z,64.92
2019-02-17T18:57:25.266Z,65.63
2019-02-17T18:59:33.560Z,65.36
2019-02-17T19:01:39.954Z,65.04
2019-02-17T19:03:50.677Z,65.23
2019-02-17T19:05:57.046Z,64.94
2019-02-17T19:08:03.380Z,65.31
2019-02-17T19:10:14.148Z,65.23
2019-02-17T19:12:22.014Z,65.03
2019-02-17T19:14:30.058Z,64.97
2019-02-17T19:16:39.218Z,65.07
2019-02-17T19:18:44.732Z,65.28
2019-02-17T19:20:54.825Z,65.36
2019-02-17T19:23:01.970Z,65.49
2019-02-17T19:25:12.591Z,65.44
2019-02-17T19:27:22.283Z,65.48
2019-02-17T19:29:31.851Z,65.59
2019-02-17T19:31:40.958Z,65.46
2019-02-17T19:33:48.755Z,65.47
2019-02-17T19:35:58.196Z,65.55
2019-02-17T19:38:05.214Z,65.60
2019-02-17T19:40:14.668Z,65.62
2019-02-17T19:42:21.103Z,65.71
2019-02-17T19:44:33.347Z,65.78
2019-02-17T19:46:47.802Z,65.71
2019-02-17T19:48:57.582Z,65.92
2019-02-17T19:51:04.541Z,65.91
2019-02-17T19:53:12.197Z,66.04
2019-02-17T19:55:18.497Z,66.26
2019-02-17T19:57:28.906Z,66.04
2019-02-17T19:59:36.092Z,66.11
2019-02-17T20:01:45.445Z,66.18
2019-02-17T20:04:00.745Z,66.15
2019-02-17T20:06:09.724Z,66.11
2019-02-17T20:08:17.236Z,66.20
2019-02-17T20:10:24.160Z,66.11
2019-02-17T20:12:31.652Z,66.04
2019-02-17T20:14:39.399Z,65.90
2019-02-17T20:16:51.331Z,65.86
2019-02-17T20:19:01.640Z,65.95
2019-02-17T20:21:08.133Z,66.14
2019-02-17T20:23:16.087Z,66.34
2019-02-17T20:25:27.647Z,66.38
2019-02-17T20:27:34.020Z,66.31
2019-02-17T20:29:40.382Z,65.46
2019-02-17T20:31:47.027Z,65.14
2019-02-17T20:33:55.086Z,65.21
2019-02-17T20:36:07.746Z,64.89
2019-02-17T20:38:15.519Z,64.96
2019-02-17T20:40:21.892Z,64.80
2019-02-17T20:42:28.269Z,64.89
2019-02-17T20:44:36.240Z,64.90
2019-02-17T20:46:42.541Z,64.66
2019-02-17T20:48:52.366Z,64.71
2019-02-17T20:50:59.693Z,64.81
2019-02-17T20:53:06.103Z,64.69
2019-02-17T20:55:15.594Z,64.49
2019-02-17T20:57:23.554Z,64.71
2019-02-17T20:59:31.562Z,64.54
2019-02-17T21:01:39.738Z,64.53
2019-02-17T21:03:46.139Z,64.71
2019-02-17T21:05:54.136Z,64.86
2019-02-17T21:08:00.500Z,65.04
2019-02-17T21:10:12.356Z,65.16
2019-02-17T21:12:22.825Z,65.11
2019-02-17T21:14:30.849Z,65.25
2019-02-17T21:16:38.490Z,65.34
2019-02-17T21:18:44.755Z,65.33
2019-02-17T21:20:51.114Z,65.26
2019-02-17T21:22:57.508Z,65.49
2019-02-17T21:25:10.669Z,65.59
2019-02-17T21:27:17.709Z,65.72
2019-02-17T21:29:24.602Z,65.82
2019-02-17T21:31:32.308Z,66.11
2019-02-17T21:33:40.162Z,66.29
2019-02-17T21:35:47.980Z,66.42
2019-02-17T21:37:54.268Z,66.42
2019-02-17T21:40:02.256Z,66.60
2019-02-17T21:42:10.337Z,66.75
2019-02-17T21:44:22.054Z,66.89
2019-02-17T21:46:28.363Z,66.97
2019-02-17T21:48:35.568Z,67.11
2019-02-17T21:50:41.936Z,67.41
2019-02-17T21:52:48.318Z,67.73
2019-02-17T21:54:56.044Z,67.98
2019-02-17T21:57:02.411Z,68.08
2019-02-17T21:59:08.571Z,68.48
2019-02-17T22:01:14.899Z,68.52
2019-02-17T22:03:21.267Z,68.80
2019-02-17T22:05:28.748Z,69.05
2019-02-17T22:07:36.635Z,69.22
2019-02-17T22:09:43.002Z,69.51
2019-02-17T22:11:50.293Z,70.09
2019-02-17T22:13:56.676Z,70.21
2019-02-17T22:16:03.222Z,70.53
2019-02-17T22:18:09.594Z,70.73
2019-02-17T22:20:15.839Z,70.83
2019-02-17T22:22:22.130Z,71.00
2019-02-17T22:24:28.424Z,71.32
2019-02-17T22:26:34.764Z,71.68
2019-02-17T22:28:42.470Z,71.82
2019-02-17T22:30:48.736Z,71.69
2019-02-17T22:32:55.001Z,71.81
2019-02-17T22:35:01.377Z,71.92
2019-02-17T22:37:07.544Z,72.07
2019-02-17T22:39:13.802Z,72.23
2019-02-17T22:41:20.115Z,72.43
2019-02-17T22:43:27.970Z,72.47
2019-02-17T22:45:34.452Z,72.47
2019-02-17T22:47:40.611Z,72.48
2019-02-17T22:49:46.902Z,72.50
2019-02-17T22:51:53.094Z,72.52
2019-02-17T22:53:59.331Z,72.67
2019-02-17T22:56:05.492Z,72.95
2019-02-17T22:58:11.843Z,72.83
2019-02-17T23:00:37.707Z,72.90
2019-02-17T23:02:45.398Z,72.91
2019-02-17T23:04:51.896Z,73.15
2019-02-17T23:06:58.158Z,73.29
2019-02-17T23:09:05.057Z,73.35
2019-02-17T23:11:12.849Z,73.67
2019-02-17T23:13:19.088Z,73.68
2019-02-17T23:15:25.253Z,73.83
2019-02-17T23:17:31.560Z,74.00
2019-02-17T23:19:37.821Z,74.10
2019-02-17T23:21:44.058Z,74.23
2019-02-17T23:23:50.262Z,74.31
2019-02-17T23:25:56.412Z,74.31
2019-02-17T23:28:02.641Z,74.23
2019-02-17T23:30:11.748Z,74.20
2019-02-17T23:32:17.238Z,74.09
2019-02-17T23:34:23.270Z,74.13
2019-02-17T23:36:29.642Z,74.09
2019-02-17T23:38:35.879Z,74.00
2019-02-17T23:40:42.040Z,74.02
2019-02-17T23:42:48.306Z,73.82
2019-02-17T23:44:54.534Z,73.70
2019-02-17T23:47:00.736Z,73.59
2019-02-17T23:49:07.067Z,73.63
2019-02-17T23:51:13.467Z,73.54
2019-02-17T23:53:19.833Z,73.58
2019-02-17T23:55:26.101Z,73.71
2019-02-17T23:57:32.336Z,73.72
2019-02-17T23:59:38.566Z,73.55
